createdAt,value
2023-03-01T00:02:38.701Z,34.40
2023-03-01T00:05:24.035Z,42.08
2023-03-01T00:08:09.722Z,38.85
2023-03-01T00:11:11.034Z,41.65
2023-03-01T00:13:59.050Z,43.60
2023-03-01T00:16:51.378Z,41.08
2023-03-01T00:19:39.395Z,39.70
2023-03-01T00:22:24.712Z,46.97
2023-03-01T00:25:10.377Z,41.88
2023-03-01T00:27:57.554Z,41.38
2023-03-01T00:30:43.692Z,49.72
2023-03-01T00:33:29.012Z,45.08
2023-03-01T00:36:16.076Z,50.75
2023-03-01T00:39:01.931Z,48.58
2023-03-01T00:41:47.349Z,48.63
2023-03-01T00:44:33.084Z,47.58
2023-03-01T00:47:18.293Z,56.28
2023-03-01T00:50:04.196Z,51.83
2023-03-01T00:52:54.563Z,51.78
2023-03-01T00:55:41.050Z,54.03
2023-03-01T00:58:26.494Z,60.67
2023-03-01T01:01:20.712Z,56.65
2023-03-01T01:04:09.743Z,55.43
2023-03-01T01:07:01.947Z,70.22
2023-03-01T01:09:50.253Z,65.82
2023-03-01T01:12:39.271Z,66.68
2023-03-01T01:15:24.823Z,72.45
2023-03-01T01:18:10.626Z,74.55
2023-03-01T01:20:58.088Z,82.03
2023-03-01T01:23:44.797Z,78.75
2023-03-01T01:26:34.389Z,74.43
2023-03-01T01:29:20.218Z,84.25
2023-03-01T01:32:05.994Z,80.28
2023-03-01T01:34:52.269Z,79.00
2023-03-01T01:37:37.954Z,87.10
2023-03-01T01:40:23.454Z,82.82
2023-03-01T01:43:24.897Z,93.43
2023-03-01T01:46:30.134Z,97.35
2023-03-01T01:52:38.662Z,91.80
2023-03-01T01:55:32.481Z,99.72
2023-03-01T01:58:21.795Z,84.55
2023-03-01T02:01:08.927Z,95.10
2023-03-01T02:03:54.396Z,93.00
2023-03-01T02:06:51.355Z,95.35
2023-03-01T02:09:40.798Z,82.97
2023-03-01T02:12:30.540Z,80.93
2023-03-01T02:15:16.183Z,83.47
2023-03-01T02:18:05.874Z,80.78
2023-03-01T02:21:14.442Z,82.22
2023-03-01T02:24:06.889Z,86.18
2023-03-01T02:26:57.722Z,79.80
2023-03-01T02:29:44.961Z,79.28
2023-03-01T02:32:30.437Z,72.57
2023-03-01T02:35:19.226Z,62.58
2023-03-01T02:38:08.852Z,74.65
2023-03-01T02:40:57.419Z,72.85
2023-03-01T02:43:43.063Z,62.13
2023-03-01T02:46:29.007Z,67.90
2023-03-01T02:49:30.345Z,67.40
2023-03-01T02:52:37.497Z,62.63
2023-03-01T02:55:34.634Z,60.30
2023-03-01T02:58:24.501Z,61.08
2023-03-01T03:01:10.911Z,64.30
2023-03-01T03:03:56.652Z,59.97
2023-03-01T03:06:50.182Z,57.40
2023-03-01T03:09:35.873Z,55.63
2023-03-01T03:12:23.681Z,59.15
2023-03-01T03:15:13.878Z,56.47
2023-03-01T03:18:00.069Z,58.10
2023-03-01T03:20:46.307Z,55.58
2023-03-01T03:23:32.383Z,56.15
2023-03-01T03:26:17.717Z,59.03
2023-03-01T03:29:05.859Z,56.85
2023-03-01T03:31:51.424Z,57.13
2023-03-01T03:34:37.023Z,63.03
2023-03-01T03:37:40.812Z,66.40
2023-03-01T03:40:28.335Z,60.53
2023-03-01T03:43:15.409Z,65.80
2023-03-01T03:46:01.544Z,65.13
2023-03-01T03:48:47.276Z,72.57
2023-03-01T03:51:32.478Z,75.57
2023-03-01T03:54:21.464Z,66.20
2023-03-01T03:57:07.016Z,66.22
2023-03-01T03:59:52.416Z,74.88
2023-03-01T04:02:40.962Z,68.22
2023-03-01T04:05:26.629Z,70.80
2023-03-01T04:08:13.039Z,71.57
2023-03-01T04:11:22.474Z,75.28
2023-03-01T04:14:07.902Z,79.28
2023-03-01T04:16:53.530Z,80.75
2023-03-01T04:19:39.497Z,80.75
2023-03-01T04:22:30.803Z,76.43
2023-03-01T04:25:16.048Z,96.53
2023-03-01T04:28:01.580Z,79.45
2023-03-01T04:30:46.982Z,77.68
2023-03-01T04:33:32.490Z,76.90
2023-03-01T04:36:20.812Z,79.40
2023-03-01T04:39:15.106Z,78.30
2023-03-01T04:42:00.540Z,73.78
2023-03-01T04:44:46.847Z,72.32
2023-03-01T04:47:32.371Z,74.18
2023-03-01T04:50:21.425Z,71.68
2023-03-01T04:53:06.877Z,68.22
2023-03-01T04:55:52.429Z,73.85
2023-03-01T04:58:38.010Z,74.60
2023-03-01T05:01:23.814Z,79.95
2023-03-01T05:04:15.666Z,75.60
2023-03-01T05:07:01.217Z,75.30
2023-03-01T05:09:47.580Z,73.53
2023-03-01T05:12:33.147Z,77.03
2023-03-01T05:15:21.132Z,75.60
2023-03-01T05:18:12.311Z,77.05
2023-03-01T05:21:12.901Z,77.57
2023-03-01T05:23:58.474Z,77.40
2023-03-01T05:26:44.422Z,69.45
2023-03-01T05:29:31.863Z,75.90
2023-03-01T05:32:17.607Z,70.15
2023-03-01T05:35:03.078Z,72.75
2023-03-01T05:37:50.413Z,63.75
2023-03-01T05:40:36.491Z,59.40
2023-03-01T05:43:22.005Z,58.72
2023-03-01T05:46:07.735Z,53.25
2023-03-01T05:48:52.956Z,54.65
2023-03-01T05:51:38.423Z,44.55
2023-03-01T05:54:25.772Z,44.10
2023-03-01T05:57:11.422Z,43.17
2023-03-01T05:59:57.126Z,34.00
2023-03-01T06:02:42.922Z,37.45
2023-03-01T06:05:29.056Z,40.80
2023-03-01T06:08:14.944Z,38.70
2023-03-01T06:11:01.316Z,39.42
2023-03-01T06:13:47.669Z,39.13
2023-03-01T06:16:33.281Z,40.45
2023-03-01T06:19:18.856Z,47.40
2023-03-01T06:22:04.089Z,45.33
2023-03-01T06:24:49.545Z,52.08
2023-03-01T06:27:35.232Z,55.90
2023-03-01T06:30:22.260Z,52.67
2023-03-01T06:33:07.476Z,60.38
2023-03-01T06:35:58.281Z,58.55
2023-03-01T06:38:46.434Z,68.55
2023-03-01T06:41:31.959Z,67.60
2023-03-01T06:44:17.333Z,70.50
2023-03-01T06:47:03.236Z,67.07
2023-03-01T06:49:48.597Z,66.93
2023-03-01T06:52:34.376Z,66.22
2023-03-01T06:55:19.862Z,57.05
2023-03-01T06:58:05.188Z,55.63
2023-03-01T07:00:51.067Z,55.92
2023-03-01T07:03:36.272Z,57.35
2023-03-01T07:06:22.287Z,54.95
2023-03-01T07:09:09.234Z,53.88
2023-03-01T07:11:57.313Z,53.00
2023-03-01T07:14:44.766Z,46.85
2023-03-01T07:17:30.396Z,49.65
2023-03-01T07:20:16.257Z,45.88
2023-03-01T07:23:01.442Z,45.72
2023-03-01T07:25:53.982Z,43.78
2023-03-01T07:28:40.291Z,46.63
2023-03-01T07:31:28.842Z,44.50
2023-03-01T07:34:16.814Z,44.20
2023-03-01T07:37:02.154Z,39.55
2023-03-01T07:39:47.652Z,40.22
2023-03-01T07:42:33.340Z,37.50
2023-03-01T07:45:24.348Z,38.45
2023-03-01T07:48:09.748Z,33.30
2023-03-01T07:50:55.260Z,37.55
2023-03-01T07:53:41.105Z,30.02
2023-03-01T07:56:26.383Z,33.10
2023-03-01T07:59:11.979Z,32.67
2023-03-01T08:01:58.170Z,30.52
2023-03-01T08:04:43.891Z,31.55
2023-03-01T08:07:29.177Z,28.10
2023-03-01T08:10:14.767Z,22.98
2023-03-01T08:13:00.377Z,25.95
2023-03-01T08:15:46.192Z,23.15
2023-03-01T08:18:32.883Z,18.00
2023-03-01T08:21:19.540Z,22.45
2023-03-01T08:24:09.190Z,21.42
2023-03-01T08:26:54.980Z,22.15
2023-03-01T08:29:40.816Z,16.55
2023-03-01T08:32:29.139Z,17.42
2023-03-01T08:35:15.144Z,19.88
2023-03-01T08:38:05.848Z,20.02
2023-03-01T08:40:54.132Z,20.00
2023-03-01T08:43:42.397Z,17.15
2023-03-01T08:46:29.894Z,15.98
2023-03-01T08:49:23.255Z,17.83
2023-03-01T08:52:08.994Z,16.52
2023-03-01T08:54:54.498Z,17.38
2023-03-01T08:57:39.759Z,15.00
2023-03-01T09:00:26.164Z,15.60
2023-03-01T09:03:11.625Z,15.35
2023-03-01T09:06:02.507Z,19.75
2023-03-01T09:08:49.865Z,14.65
2023-03-01T09:11:35.232Z,13.98
2023-03-01T09:14:20.807Z,10.57
2023-03-01T09:17:06.429Z,13.90
2023-03-01T09:19:51.780Z,15.77
2023-03-01T09:22:37.189Z,18.85
2023-03-01T09:25:23.074Z,12.93
2023-03-01T09:28:09.551Z,14.18
2023-03-01T09:31:01.865Z,13.75
2023-03-01T09:33:49.351Z,16.75
2023-03-01T09:36:37.788Z,20.10
2023-03-01T09:39:23.250Z,13.38
2023-03-01T09:42:13.592Z,16.15
2023-03-01T09:45:01.032Z,16.20
2023-03-01T09:47:46.974Z,14.38
2023-03-01T09:50:39.901Z,16.33
2023-03-01T09:53:33.627Z,16.13
2023-03-01T09:56:32.146Z,16.27
2023-03-01T09:59:27.025Z,14.95
2023-03-01T10:03:00.806Z,14.27
2023-03-01T10:06:07.432Z,16.58
2023-03-01T10:08:59.630Z,17.90
2023-03-01T10:11:55.072Z,18.23
2023-03-01T10:17:45.641Z,13.02
2023-03-01T10:20:55.028Z,13.80
2023-03-01T10:23:42.862Z,15.75
2023-03-01T10:26:49.454Z,16.58
2023-03-01T10:29:47.282Z,12.60
2023-03-01T10:32:35.636Z,12.75
2023-03-01T10:35:28.303Z,12.93
2023-03-01T10:38:15.387Z,15.15
2023-03-01T10:41:09.477Z,13.75
2023-03-01T10:43:57.987Z,13.50
2023-03-01T10:46:43.570Z,13.48
2023-03-01T10:49:29.508Z,13.68
2023-03-01T10:52:23.871Z,18.02
2023-03-01T10:55:51.323Z,21.85
2023-03-01T10:58:39.475Z,16.10
2023-03-01T11:01:36.426Z,11.95
2023-03-01T11:04:29.298Z,12.90
2023-03-01T11:07:14.896Z,11.77
2023-03-01T11:10:00.337Z,13.38
2023-03-01T11:12:46.029Z,11.50
2023-03-01T11:15:31.745Z,10.25
2023-03-01T11:18:21.759Z,8.32
2023-03-01T11:21:09.791Z,10.40
2023-03-01T11:23:55.362Z,10.23
2023-03-01T11:26:44.387Z,12.38
2023-03-01T11:29:49.194Z,11.23
2023-03-01T11:32:50.140Z,9.63
2023-03-01T11:35:43.117Z,9.30
2023-03-01T11:38:33.445Z,10.65
2023-03-01T11:41:22.977Z,9.05
2023-03-01T11:44:30.357Z,7.20
2023-03-01T11:47:41.344Z,7.35
2023-03-01T11:50:45.374Z,6.95
2023-03-01T11:53:40.436Z,10.82
2023-03-01T11:56:48.059Z,5.15
2023-03-01T11:59:54.253Z,5.50
2023-03-01T12:03:04.654Z,4.75
2023-03-01T12:06:27.456Z,6.80
2023-03-01T12:09:28.898Z,7.90
2023-03-01T12:12:29.449Z,6.43
2023-03-01T12:15:52.896Z,6.57
2023-03-01T12:18:56.993Z,8.63
2023-03-01T12:22:10.769Z,6.60
2023-03-01T12:25:17.092Z,6.28
2023-03-01T12:28:10.752Z,8.95
2023-03-01T12:31:37.547Z,8.27
2023-03-01T12:34:44.402Z,7.22
2023-03-01T12:37:56.240Z,5.63
2023-03-01T12:41:21.419Z,7.22
2023-03-01T12:44:13.017Z,5.00
2023-03-01T12:47:40.374Z,4.57
2023-03-01T12:51:03.341Z,4.78
2023-03-01T12:53:50.159Z,9.48
2023-03-01T12:56:39.372Z,6.22
2023-03-01T12:59:51.787Z,5.25
2023-03-01T13:02:56.117Z,5.95
2023-03-01T13:05:53.901Z,7.00
2023-03-01T13:08:52.004Z,5.47
2023-03-01T13:11:37.481Z,5.47
2023-03-01T13:14:26.020Z,4.75
2023-03-01T13:17:33.000Z,10.30
2023-03-01T13:20:20.661Z,6.72
2023-03-01T13:23:14.281Z,6.38
2023-03-01T13:25:59.746Z,5.95
2023-03-01T13:28:45.100Z,7.07
2023-03-01T13:31:34.813Z,6.50
2023-03-01T13:35:04.442Z,5.47
2023-03-01T13:37:50.085Z,6.45
2023-03-01T13:40:35.624Z,5.70
2023-03-01T13:43:30.418Z,4.82
2023-03-01T13:46:24.875Z,6.30
2023-03-01T13:49:17.181Z,4.95
2023-03-01T13:52:24.093Z,6.05
2023-03-01T13:55:24.896Z,5.82
2023-03-01T13:58:23.302Z,5.85
2023-03-01T14:01:21.300Z,5.82
2023-03-01T14:04:39.954Z,5.85
2023-03-01T14:07:26.652Z,7.93
2023-03-01T14:10:16.495Z,5.10
2023-03-01T14:13:16.222Z,4.85
2023-03-01T14:16:30.466Z,5.63
2023-03-01T14:19:32.722Z,4.47
2023-03-01T14:22:21.513Z,5.38
2023-03-01T14:25:22.403Z,5.70
2023-03-01T14:28:26.604Z,4.45
2023-03-01T14:31:38.470Z,7.03
2023-03-01T14:34:36.823Z,5.05
2023-03-01T14:37:26.228Z,5.07
2023-03-01T14:40:28.345Z,6.07
2023-03-01T14:43:21.343Z,4.38
2023-03-01T14:46:06.914Z,5.85
2023-03-01T14:49:30.399Z,10.82
2023-03-01T14:52:27.030Z,5.97
2023-03-01T14:55:47.233Z,6.00
2023-03-01T14:58:34.870Z,6.57
2023-03-01T15:01:21.108Z,4.35
2023-03-01T15:04:09.791Z,4.68
2023-03-01T15:07:05.845Z,6.63
2023-03-01T15:09:51.976Z,4.38
2023-03-01T15:12:40.538Z,8.10
2023-03-01T15:15:37.714Z,4.57
2023-03-01T15:18:31.258Z,5.22
2023-03-01T15:21:26.512Z,3.90
2023-03-01T15:24:20.996Z,5.78
2023-03-01T15:27:15.278Z,5.68
2023-03-01T15:30:03.191Z,5.28
2023-03-01T15:33:20.705Z,4.32
2023-03-01T15:36:44.557Z,8.15
2023-03-01T15:40:03.258Z,4.68
2023-03-01T15:42:48.853Z,6.13
2023-03-01T15:45:35.154Z,6.18
2023-03-01T15:48:21.537Z,4.15
2023-03-01T15:51:13.880Z,7.18
2023-03-01T15:54:14.233Z,6.03
2023-03-01T15:56:59.901Z,5.93
2023-03-01T15:59:45.561Z,4.53
2023-03-01T16:02:30.874Z,8.73
2023-03-01T16:05:20.981Z,4.65
2023-03-01T16:08:07.149Z,6.18
2023-03-01T16:10:54.464Z,4.22
2023-03-01T16:13:40.170Z,6.75
2023-03-01T16:16:25.744Z,6.93
2023-03-01T16:19:11.638Z,5.93
2023-03-01T16:21:57.131Z,6.35
2023-03-01T16:24:42.568Z,5.35
2023-03-01T16:27:27.936Z,6.18
2023-03-01T16:30:15.305Z,7.68
2023-03-01T16:33:00.897Z,7.78
2023-03-01T16:35:46.156Z,6.30
2023-03-01T16:38:34.372Z,5.80
2023-03-01T16:41:22.440Z,7.85
2023-03-01T16:44:07.983Z,5.18
2023-03-01T16:46:53.297Z,5.45
2023-03-01T16:49:38.733Z,6.80
2023-03-01T16:52:24.318Z,5.97
2023-03-01T16:55:10.820Z,7.00
2023-03-01T16:57:56.499Z,7.53
2023-03-01T17:00:41.822Z,7.55
2023-03-01T17:03:31.950Z,7.88
2023-03-01T17:06:21.637Z,7.90
2023-03-01T17:09:07.054Z,7.57
2023-03-01T17:11:52.528Z,7.43
2023-03-01T17:14:39.469Z,10.45
2023-03-01T17:17:24.992Z,7.30
2023-03-01T17:20:11.355Z,9.52
2023-03-01T17:22:56.933Z,8.73
2023-03-01T17:25:46.647Z,9.38
2023-03-01T17:28:33.759Z,9.77
2023-03-01T17:31:20.051Z,8.55
2023-03-01T17:34:05.763Z,9.10
2023-03-01T17:36:52.259Z,10.35
2023-03-01T17:39:37.974Z,12.55
2023-03-01T17:42:23.678Z,11.00
2023-03-01T17:45:09.676Z,13.63
2023-03-01T17:47:54.953Z,11.93
2023-03-01T17:50:40.771Z,12.55
2023-03-01T17:53:29.965Z,9.60
2023-03-01T17:56:18.148Z,8.57
2023-03-01T17:59:04.977Z,11.88
2023-03-01T18:01:50.629Z,11.70
2023-03-01T18:04:36.318Z,13.80
2023-03-01T18:07:21.526Z,10.88
2023-03-01T18:10:07.677Z,13.93
2023-03-01T18:12:56.668Z,12.35
2023-03-01T18:15:42.247Z,10.98
2023-03-01T18:18:28.869Z,14.27
2023-03-01T18:21:15.540Z,12.23
2023-03-01T18:24:00.802Z,14.20
2023-03-01T18:26:47.009Z,10.38
2023-03-01T18:29:33.917Z,15.13
2023-03-01T18:32:19.571Z,13.63
2023-03-01T18:35:05.815Z,13.55
2023-03-01T18:37:54.130Z,14.10
2023-03-01T18:40:40.797Z,11.02
2023-03-01T18:43:28.848Z,12.77
2023-03-01T18:46:15.013Z,12.95
2023-03-01T18:49:00.391Z,16.15
2023-03-01T18:51:46.091Z,12.52
2023-03-01T18:54:33.676Z,16.33
2023-03-01T18:57:25.859Z,13.82
2023-03-01T19:00:13.107Z,15.52
2023-03-01T19:02:59.409Z,14.00
2023-03-01T19:05:46.271Z,17.02
2023-03-01T19:08:32.230Z,12.57
2023-03-01T19:11:17.959Z,12.82
2023-03-01T19:14:04.812Z,16.02
2023-03-01T19:16:50.191Z,11.40
2023-03-01T19:19:36.496Z,12.65
2023-03-01T19:22:21.622Z,21.55
2023-03-01T19:25:07.792Z,14.13
2023-03-01T19:27:53.128Z,12.50
2023-03-01T19:30:41.659Z,16.30
2023-03-01T19:33:28.810Z,14.88
2023-03-01T19:36:14.844Z,12.07
2023-03-01T19:39:02.185Z,19.92
2023-03-01T19:41:49.951Z,14.30
2023-03-01T19:44:38.918Z,15.30
2023-03-01T19:47:24.425Z,13.57
2023-03-01T19:50:10.371Z,13.90
2023-03-01T19:52:56.036Z,13.70
2023-03-01T19:55:42.371Z,11.38
2023-03-01T19:58:29.760Z,16.38
2023-03-01T20:01:18.021Z,15.48
2023-03-01T20:04:04.771Z,19.80
2023-03-01T20:06:50.357Z,16.48
2023-03-01T20:09:36.121Z,18.00
2023-03-01T20:12:21.519Z,16.52
2023-03-01T20:15:07.819Z,17.02
2023-03-01T20:17:53.388Z,18.35
2023-03-01T20:20:38.703Z,21.92
2023-03-01T20:23:24.316Z,20.00
2023-03-01T20:26:16.607Z,19.55
2023-03-01T20:29:02.820Z,18.35
2023-03-01T20:31:48.305Z,20.60
2023-03-01T20:34:37.238Z,20.15
2023-03-01T20:37:22.930Z,19.45
2023-03-01T20:40:09.677Z,20.98
2023-03-01T20:42:55.617Z,20.95
2023-03-01T20:45:41.124Z,19.45
2023-03-01T20:48:31.847Z,19.25
2023-03-01T20:51:17.668Z,18.52
2023-03-01T20:54:04.187Z,21.05
2023-03-01T20:56:54.916Z,21.25
2023-03-01T20:59:40.495Z,16.02
2023-03-01T21:02:28.351Z,19.13
2023-03-01T21:05:16.803Z,16.95
2023-03-01T21:08:02.913Z,18.98
2023-03-01T21:11:00.539Z,16.67
2023-03-01T21:13:46.588Z,17.02
2023-03-01T21:16:33.423Z,17.70
2023-03-01T21:19:27.625Z,22.55
2023-03-01T21:22:15.117Z,20.00
2023-03-01T21:25:03.772Z,19.90
2023-03-01T21:27:49.422Z,19.00
2023-03-01T21:30:35.097Z,23.63
2023-03-01T21:33:20.779Z,23.02
2023-03-01T21:36:09.065Z,21.90
2023-03-01T21:38:55.194Z,21.73
2023-03-01T21:41:40.914Z,20.90
2023-03-01T21:44:28.184Z,20.67
2023-03-01T21:47:13.568Z,22.48
2023-03-01T21:49:58.916Z,21.40
2023-03-01T21:52:44.906Z,22.00
2023-03-01T21:55:34.398Z,19.60
2023-03-01T21:58:20.225Z,23.20
2023-03-01T22:01:14.915Z,21.05
2023-03-01T22:04:04.641Z,23.48
2023-03-01T22:06:54.334Z,23.98
2023-03-01T22:09:42.017Z,21.75
2023-03-01T22:12:27.531Z,25.40
2023-03-01T22:15:13.264Z,21.63
2023-03-01T22:17:58.928Z,23.10
2023-03-01T22:20:44.144Z,23.13
2023-03-01T22:23:30.135Z,22.17
2023-03-01T22:26:28.484Z,23.13
2023-03-01T22:29:20.104Z,23.25
2023-03-01T22:32:06.112Z,23.63
2023-03-01T22:34:51.590Z,22.88
2023-03-01T22:37:37.529Z,24.80
2023-03-01T22:40:23.096Z,24.33
2023-03-01T22:43:08.839Z,25.30
2023-03-01T22:46:09.221Z,21.90
2023-03-01T22:48:54.885Z,21.33
2023-03-01T22:51:42.620Z,22.70
2023-03-01T22:54:28.445Z,28.40
2023-03-01T22:57:13.923Z,24.63
2023-03-01T22:59:59.651Z,25.60
2023-03-01T23:02:45.583Z,20.88
2023-03-01T23:05:31.162Z,26.92
2023-03-01T23:08:16.750Z,22.20
2023-03-01T23:11:03.002Z,25.73
2023-03-01T23:13:49.289Z,25.17
2023-03-01T23:16:36.453Z,28.55
2023-03-01T23:19:22.125Z,27.02
2023-03-01T23:22:07.459Z,27.55
2023-03-01T23:24:53.131Z,27.90
2023-03-01T23:27:42.254Z,30.00
2023-03-01T23:30:27.965Z,30.73
2023-03-01T23:33:13.761Z,30.23
2023-03-01T23:36:02.635Z,32.47
2023-03-01T23:38:50.131Z,35.90
2023-03-01T23:41:36.073Z,36.13
2023-03-01T23:44:25.200Z,37.15
2023-03-01T23:47:10.759Z,40.45
2023-03-01T23:49:58.900Z,40.50
2023-03-01T23:52:44.388Z,45.17
2023-03-01T23:55:35.189Z,44.72
2023-03-01T23:58:28.705Z,50.80
